Fruitvale, Washington
Current Conditions -  °F | °C
As of 4:53 AM on Sunday 23 Nov 2014 (Local Time) from KYKM Reporting Station
Clear Clear  
Wind Chill: 33°   Ceiling: Unl
Heat Index: 33°   Visibility: 10mi
Dew Point: 26°   Wind: 3mph
Humidity: 75%   Direction: 150°SSE
Pressure: 30.15"   Gusts: NA
Location:  46.5979°N, 120.534°W
Report Text: KYKM 231253Z AUTO 15003KT 10SM CLR 01/M03 A3015 RMK AO2 SLP220 T00061033
Loading
Personal Weather Stations






























Interactive Weather Map New forecast layout! Learn more

10-Day Weather Forecast

Advertisements
Track Severe Weather on mobile